createdAt,value
2023-03-10T00:00:31.160Z,4.70
2023-03-10T00:03:01.291Z,3.55
2023-03-10T00:05:31.566Z,2.22
2023-03-10T00:08:02.015Z,2.40
2023-03-10T00:10:32.208Z,3.17
2023-03-10T00:13:02.515Z,2.50
2023-03-10T00:15:32.830Z,4.00
2023-03-10T00:18:02.952Z,3.67
2023-03-10T00:20:33.023Z,2.78
2023-03-10T00:23:03.192Z,2.92
2023-03-10T00:25:33.277Z,1.88
2023-03-10T00:28:03.566Z,2.58
2023-03-10T00:30:35.481Z,1.88
2023-03-10T00:33:05.735Z,3.13
2023-03-10T00:35:35.832Z,2.35
2023-03-10T00:38:06.098Z,1.73
2023-03-10T00:40:36.259Z,2.03
2023-03-10T00:43:06.396Z,2.90
2023-03-10T00:45:36.515Z,3.08
2023-03-10T00:48:06.982Z,2.80
2023-03-10T00:50:37.193Z,2.75
2023-03-10T00:53:07.498Z,3.58
2023-03-10T00:55:37.734Z,2.95
2023-03-10T00:58:07.993Z,3.20
2023-03-10T01:00:38.249Z,2.60
2023-03-10T01:03:08.363Z,3.08
2023-03-10T01:05:38.505Z,3.30
2023-03-10T01:08:08.728Z,3.60
2023-03-10T01:10:38.956Z,2.90
2023-03-10T01:13:11.731Z,2.13
2023-03-10T01:15:44.695Z,1.90
2023-03-10T01:18:16.124Z,2.15
2023-03-10T01:20:46.566Z,2.03
2023-03-10T01:23:19.924Z,2.03
2023-03-10T01:25:50.687Z,1.58
2023-03-10T01:28:21.963Z,2.50
2023-03-10T01:30:52.134Z,3.25
2023-03-10T01:33:22.315Z,2.13
2023-03-10T01:35:52.667Z,2.38
2023-03-10T01:38:22.949Z,2.20
2023-03-10T01:40:53.401Z,2.50
2023-03-10T01:43:23.430Z,2.17
2023-03-10T01:45:53.484Z,2.42
2023-03-10T01:48:24.567Z,2.40
2023-03-10T01:50:57.391Z,2.13
2023-03-10T01:53:29.708Z,2.70
2023-03-10T01:56:02.485Z,2.60
2023-03-10T01:58:40.143Z,2.92
2023-03-10T02:01:12.093Z,2.63
2023-03-10T02:03:50.219Z,2.67
2023-03-10T02:06:22.255Z,2.42
2023-03-10T02:08:57.405Z,1.95
2023-03-10T02:11:27.900Z,2.78
2023-03-10T02:14:01.194Z,2.40
2023-03-10T02:16:31.458Z,1.92
2023-03-10T02:19:06.274Z,2.20
2023-03-10T02:21:45.816Z,3.10
2023-03-10T02:24:27.659Z,2.95
2023-03-10T02:27:10.764Z,2.75
2023-03-10T02:29:58.529Z,1.98
2023-03-10T02:32:33.209Z,2.92
2023-03-10T02:35:04.932Z,1.17
2023-03-10T02:37:36.436Z,1.60
2023-03-10T02:40:34.206Z,2.08
2023-03-10T02:43:14.107Z,2.60
2023-03-10T02:45:47.487Z,1.95
2023-03-10T02:48:44.306Z,2.17
2023-03-10T02:51:22.053Z,1.75
2023-03-10T02:53:52.385Z,2.40
2023-03-10T02:56:22.496Z,1.63
2023-03-10T02:58:52.745Z,3.10
2023-03-10T03:01:23.771Z,3.25
2023-03-10T03:03:54.879Z,1.88
2023-03-10T03:06:26.102Z,2.25
2023-03-10T03:08:57.058Z,2.40
2023-03-10T03:11:27.297Z,2.33
2023-03-10T03:13:57.480Z,2.05
2023-03-10T03:16:27.682Z,2.70
2023-03-10T03:18:57.886Z,2.00
2023-03-10T03:21:28.096Z,1.73
2023-03-10T03:23:58.854Z,2.10
2023-03-10T03:26:29.031Z,1.65
2023-03-10T03:28:59.362Z,2.00
2023-03-10T03:31:29.594Z,2.00
2023-03-10T03:33:59.732Z,1.58
2023-03-10T03:36:30.224Z,1.35
2023-03-10T03:39:00.458Z,1.60
2023-03-10T03:41:30.611Z,1.60
2023-03-10T03:44:01.077Z,2.42
2023-03-10T03:46:31.452Z,2.67
2023-03-10T03:49:01.828Z,3.28
2023-03-10T03:51:32.109Z,2.60
2023-03-10T03:54:02.193Z,2.63
2023-03-10T03:56:32.370Z,2.90
2023-03-10T03:59:02.494Z,2.13
2023-03-10T04:01:32.723Z,2.30
2023-03-10T04:04:02.948Z,2.15
2023-03-10T04:06:33.267Z,2.40
2023-03-10T04:09:04.263Z,3.03
2023-03-10T04:11:34.508Z,3.05
2023-03-10T04:14:04.633Z,3.20
2023-03-10T04:16:34.842Z,2.38
2023-03-10T04:19:07.813Z,3.47
2023-03-10T04:21:38.619Z,2.45
2023-03-10T04:24:08.886Z,2.22
2023-03-10T04:26:39.029Z,2.55
2023-03-10T04:29:09.811Z,2.90
2023-03-10T04:31:40.372Z,3.53
2023-03-10T04:34:10.920Z,2.50
2023-03-10T04:36:41.052Z,2.97
2023-03-10T04:39:11.853Z,2.20
2023-03-10T04:41:41.998Z,2.70
2023-03-10T04:44:24.423Z,1.92
2023-03-10T04:47:00.861Z,2.47
2023-03-10T04:49:30.960Z,2.95
2023-03-10T04:52:01.104Z,1.98
2023-03-10T04:54:31.237Z,2.03
2023-03-10T04:57:01.510Z,3.25
2023-03-10T04:59:31.640Z,2.78
2023-03-10T05:02:01.948Z,2.13
2023-03-10T05:04:32.243Z,2.10
2023-03-10T05:07:02.562Z,3.38
2023-03-10T05:09:38.052Z,4.38
2023-03-10T05:12:08.447Z,3.20
2023-03-10T05:14:38.675Z,2.90
2023-03-10T05:17:09.540Z,2.35
2023-03-10T05:19:39.745Z,2.17
2023-03-10T05:22:11.772Z,2.10
2023-03-10T05:24:43.136Z,2.60
2023-03-10T05:27:15.066Z,2.67
2023-03-10T05:29:45.529Z,2.35
2023-03-10T05:32:15.893Z,2.53
2023-03-10T05:34:46.063Z,2.85
2023-03-10T05:37:16.389Z,2.00
2023-03-10T05:39:46.561Z,2.60
2023-03-10T05:42:16.744Z,1.88
2023-03-10T05:44:47.055Z,2.70
2023-03-10T05:47:19.296Z,2.78
2023-03-10T05:49:49.468Z,3.75
2023-03-10T05:52:19.732Z,2.90
2023-03-10T05:54:49.890Z,3.40
2023-03-10T05:57:20.521Z,3.72
2023-03-10T05:59:50.684Z,3.05
2023-03-10T06:02:20.870Z,2.70
2023-03-10T06:04:51.136Z,3.40
2023-03-10T06:07:21.601Z,2.60
2023-03-10T06:09:54.210Z,3.53
2023-03-10T06:12:24.824Z,3.15
2023-03-10T06:14:54.957Z,4.30
2023-03-10T06:17:25.108Z,2.10
2023-03-10T06:19:55.294Z,2.85
2023-03-10T06:22:25.403Z,2.60
2023-03-10T06:24:55.581Z,3.28
2023-03-10T06:27:25.878Z,2.83
2023-03-10T06:29:55.988Z,4.03
2023-03-10T06:32:26.939Z,3.08
2023-03-10T06:34:59.573Z,2.15
2023-03-10T06:37:29.729Z,3.63
2023-03-10T06:39:59.916Z,2.97
2023-03-10T06:42:32.506Z,3.28
2023-03-10T06:45:02.833Z,2.63
2023-03-10T06:47:35.844Z,2.50
2023-03-10T06:50:14.474Z,2.10
2023-03-10T06:52:45.990Z,2.60
2023-03-10T06:55:17.264Z,2.72
2023-03-10T06:57:47.639Z,2.95
2023-03-10T07:00:19.659Z,4.50
2023-03-10T07:02:50.070Z,2.83
2023-03-10T07:05:23.822Z,2.35
2023-03-10T07:07:55.577Z,2.83
2023-03-10T07:10:25.840Z,2.65
2023-03-10T07:12:59.094Z,2.00
2023-03-10T07:15:29.651Z,3.05
2023-03-10T07:18:00.452Z,2.95
2023-03-10T07:20:30.748Z,2.63
2023-03-10T07:23:01.085Z,2.53
2023-03-10T07:25:31.701Z,4.20
2023-03-10T07:28:01.959Z,2.85
2023-03-10T07:30:33.111Z,3.20
2023-03-10T07:33:03.771Z,2.95
2023-03-10T07:35:36.682Z,3.60
2023-03-10T07:38:09.989Z,2.92
2023-03-10T07:40:41.445Z,3.08
2023-03-10T07:43:11.709Z,4.22
2023-03-10T07:45:42.145Z,2.90
2023-03-10T07:48:12.435Z,2.33
2023-03-10T07:50:42.663Z,2.58
2023-03-10T07:53:12.909Z,3.08
2023-03-10T07:55:43.308Z,4.50
2023-03-10T07:58:13.577Z,2.63
2023-03-10T08:00:43.761Z,2.35
2023-03-10T08:03:13.993Z,3.83
2023-03-10T08:05:44.221Z,3.38
2023-03-10T08:08:14.376Z,2.85
2023-03-10T08:10:44.856Z,3.17
2023-03-10T08:13:15.317Z,4.72
2023-03-10T08:15:45.580Z,3.08
2023-03-10T08:18:15.869Z,4.82
2023-03-10T08:20:46.071Z,4.38
2023-03-10T08:23:16.306Z,4.38
2023-03-10T08:25:46.675Z,3.00
2023-03-10T08:28:16.974Z,2.85
2023-03-10T08:31:02.976Z,2.78
2023-03-10T08:33:34.309Z,5.18
2023-03-10T08:36:07.111Z,4.82
2023-03-10T08:38:37.668Z,3.00
2023-03-10T08:41:21.610Z,2.97
2023-03-10T08:43:53.403Z,2.20
2023-03-10T08:46:25.205Z,3.08
2023-03-10T08:48:56.207Z,3.70
2023-03-10T08:51:27.350Z,2.55
2023-03-10T08:53:57.953Z,4.10
2023-03-10T08:56:28.729Z,3.63
2023-03-10T08:59:00.828Z,3.35
2023-03-10T09:01:34.083Z,3.53
2023-03-10T09:04:06.978Z,4.50
2023-03-10T09:06:38.097Z,3.13
2023-03-10T09:09:10.462Z,3.88
2023-03-10T09:11:41.906Z,3.47
2023-03-10T09:14:15.017Z,3.35
2023-03-10T09:16:46.947Z,3.17
2023-03-10T09:19:17.593Z,4.13
2023-03-10T09:21:47.970Z,3.53
2023-03-10T09:24:19.592Z,4.50
2023-03-10T09:26:49.898Z,4.88
2023-03-10T09:29:23.013Z,4.22
2023-03-10T09:31:57.331Z,3.60
2023-03-10T09:34:27.915Z,4.43
2023-03-10T09:36:58.007Z,4.78
2023-03-10T09:39:28.336Z,3.67
2023-03-10T09:42:18.965Z,4.20
2023-03-10T09:45:10.633Z,4.05
2023-03-10T09:48:10.539Z,3.03
2023-03-10T09:50:53.315Z,4.35
2023-03-10T09:53:42.296Z,4.03
2023-03-10T09:56:16.069Z,4.15
2023-03-10T09:58:52.344Z,4.30
2023-03-10T10:01:28.857Z,4.57
2023-03-10T10:04:11.665Z,4.40
2023-03-10T10:06:46.898Z,3.50
2023-03-10T10:09:26.176Z,6.82
2023-03-10T10:11:56.678Z,5.40
2023-03-10T10:14:31.226Z,4.00
2023-03-10T10:17:07.442Z,4.45
2023-03-10T10:19:40.093Z,2.60
2023-03-10T10:22:35.634Z,3.67
2023-03-10T10:25:09.888Z,2.03
2023-03-10T10:27:43.102Z,2.60
2023-03-10T10:30:26.643Z,6.07
2023-03-10T10:33:17.110Z,2.58
2023-03-10T10:36:02.684Z,2.60
2023-03-10T10:38:33.141Z,5.30
2023-03-10T10:41:17.181Z,4.05
2023-03-10T10:43:48.747Z,4.50
2023-03-10T10:46:26.858Z,4.47
2023-03-10T10:49:07.672Z,3.50
2023-03-10T10:51:38.578Z,4.53
2023-03-10T10:54:29.546Z,4.97
2023-03-10T10:57:01.610Z,5.30
2023-03-10T10:59:35.810Z,3.30
2023-03-10T11:02:21.497Z,2.65
2023-03-10T11:04:51.766Z,3.33
2023-03-10T11:07:27.463Z,3.60
2023-03-10T11:09:58.306Z,2.50
2023-03-10T11:12:52.348Z,3.25
2023-03-10T11:16:13.721Z,3.72
2023-03-10T11:18:54.336Z,2.95
2023-03-10T11:21:34.804Z,5.82
2023-03-10T11:24:14.725Z,3.20
2023-03-10T11:26:45.113Z,2.70
2023-03-10T11:29:24.254Z,3.50
2023-03-10T11:31:57.826Z,3.58
2023-03-10T11:34:35.663Z,3.63
2023-03-10T11:37:13.790Z,4.13
2023-03-10T11:40:07.938Z,4.68
2023-03-10T11:42:54.433Z,4.88
2023-03-10T11:45:46.661Z,3.38
2023-03-10T11:48:49.762Z,3.55
2023-03-10T11:51:31.036Z,2.92
2023-03-10T11:54:09.465Z,2.67
2023-03-10T11:56:40.614Z,3.53
2023-03-10T11:59:18.869Z,3.03
2023-03-10T12:02:15.626Z,3.55
2023-03-10T12:04:54.220Z,4.32
2023-03-10T12:07:36.365Z,3.47
2023-03-10T12:10:16.976Z,4.30
2023-03-10T12:12:49.592Z,5.95
2023-03-10T12:15:28.213Z,3.65
2023-03-10T12:17:59.003Z,8.15
2023-03-10T12:20:31.605Z,3.95
2023-03-10T12:23:10.613Z,3.50
2023-03-10T12:25:43.377Z,3.40
2023-03-10T12:28:16.450Z,3.35
2023-03-10T12:30:52.310Z,3.95
2023-03-10T12:33:31.402Z,3.88
2023-03-10T12:36:21.822Z,3.63
2023-03-10T12:38:54.163Z,3.55
2023-03-10T12:41:27.451Z,4.20
2023-03-10T12:44:01.770Z,6.95
2023-03-10T12:46:50.665Z,3.15
2023-03-10T12:49:29.380Z,3.95
2023-03-10T12:52:18.171Z,3.70
2023-03-10T12:55:10.849Z,3.40
2023-03-10T12:57:54.236Z,2.65
2023-03-10T13:00:39.780Z,3.50
2023-03-10T13:03:09.909Z,6.43
2023-03-10T13:06:04.443Z,4.47
2023-03-10T13:08:41.264Z,7.53
2023-03-10T13:11:14.152Z,4.93
2023-03-10T13:13:49.483Z,10.10
2023-03-10T13:16:21.561Z,9.80
2023-03-10T13:18:54.035Z,6.47
2023-03-10T13:21:28.272Z,3.63
2023-03-10T13:24:01.461Z,5.15
2023-03-10T13:26:31.648Z,4.53
2023-03-10T13:29:03.339Z,3.75
2023-03-10T13:31:34.701Z,6.38
2023-03-10T13:34:33.386Z,4.95
2023-03-10T13:37:10.339Z,3.63
2023-03-10T13:42:42.758Z,3.80
2023-03-10T13:45:22.890Z,3.55
2023-03-10T13:47:54.702Z,5.30
2023-03-10T13:50:25.817Z,6.10
2023-03-10T13:53:00.386Z,6.38
2023-03-10T13:55:40.263Z,4.25
2023-03-10T13:58:15.274Z,5.40
2023-03-10T14:00:50.696Z,5.05
2023-03-10T14:03:21.085Z,4.93
2023-03-10T14:05:52.501Z,5.00
2023-03-10T14:08:31.186Z,5.15
2023-03-10T14:11:34.978Z,5.78
2023-03-10T14:14:08.132Z,5.70
2023-03-10T14:16:59.710Z,9.13
2023-03-10T14:19:42.942Z,5.35
2023-03-10T14:22:29.918Z,4.20
2023-03-10T14:25:01.426Z,5.72
2023-03-10T14:27:44.831Z,5.90
2023-03-10T14:30:19.734Z,5.00
2023-03-10T14:32:50.029Z,5.78
2023-03-10T14:35:22.166Z,4.63
2023-03-10T14:37:53.331Z,6.50
2023-03-10T14:40:25.108Z,7.38
2023-03-10T14:43:01.942Z,10.23
2023-03-10T14:45:31.975Z,9.30
2023-03-10T14:48:12.314Z,11.95
2023-03-10T14:50:42.579Z,10.68
2023-03-10T14:53:15.939Z,9.07
2023-03-10T14:55:48.539Z,6.65
2023-03-10T14:58:43.136Z,11.25
2023-03-10T15:01:14.014Z,6.75
2023-03-10T15:03:45.123Z,12.20
2023-03-10T15:06:18.758Z,9.10
2023-03-10T15:08:48.918Z,8.30
2023-03-10T15:11:36.099Z,9.70
2023-03-10T15:14:19.632Z,6.45
2023-03-10T15:16:49.992Z,5.47
2023-03-10T15:19:26.472Z,5.07
2023-03-10T15:21:56.733Z,7.93
2023-03-10T15:24:26.992Z,8.48
2023-03-10T15:26:57.113Z,7.75
2023-03-10T15:29:27.364Z,7.90
2023-03-10T15:31:58.383Z,10.10
2023-03-10T15:34:28.611Z,10.32
2023-03-10T15:36:58.779Z,8.23
2023-03-10T15:39:32.103Z,9.13
2023-03-10T15:42:03.273Z,5.85
2023-03-10T15:44:33.375Z,6.90
2023-03-10T15:47:03.697Z,7.15
2023-03-10T15:49:33.862Z,7.35
2023-03-10T15:52:04.228Z,11.40
2023-03-10T15:54:34.833Z,7.45
2023-03-10T15:57:05.005Z,9.65
2023-03-10T15:59:36.371Z,7.03
2023-03-10T16:02:07.231Z,11.02
2023-03-10T16:04:37.553Z,10.57
2023-03-10T16:07:07.890Z,14.07
2023-03-10T16:09:38.905Z,12.38
2023-03-10T16:12:09.093Z,11.27
2023-03-10T16:14:39.395Z,11.60
2023-03-10T16:17:11.788Z,15.98
2023-03-10T16:19:41.934Z,10.82
2023-03-10T16:22:12.075Z,13.05
2023-03-10T16:24:43.092Z,12.93
2023-03-10T16:27:13.955Z,9.40
2023-03-10T16:29:44.128Z,12.73
2023-03-10T16:32:15.222Z,11.25
2023-03-10T16:34:45.442Z,8.73
2023-03-10T16:37:15.652Z,6.45
2023-03-10T16:39:45.796Z,7.40
2023-03-10T16:42:16.448Z,8.93
2023-03-10T16:44:46.769Z,6.10
2023-03-10T16:47:18.062Z,7.32
2023-03-10T16:49:48.312Z,9.82
2023-03-10T16:52:18.737Z,7.93
2023-03-10T16:54:48.991Z,7.93
2023-03-10T16:57:19.260Z,14.05
2023-03-10T16:59:49.403Z,11.15
2023-03-10T17:02:19.581Z,8.07
2023-03-10T17:04:49.892Z,8.48
2023-03-10T17:07:20.004Z,5.60
2023-03-10T17:09:50.312Z,6.68
2023-03-10T17:12:20.741Z,6.05
2023-03-10T17:14:51.109Z,11.38
2023-03-10T17:17:23.235Z,6.03
2023-03-10T17:19:56.934Z,10.98
2023-03-10T17:22:37.925Z,7.47
2023-03-10T17:25:13.593Z,6.32
2023-03-10T17:27:44.584Z,8.05
2023-03-10T17:30:15.874Z,7.20
2023-03-10T17:32:49.681Z,7.60
2023-03-10T17:35:19.964Z,10.23
2023-03-10T17:37:50.321Z,8.70
2023-03-10T17:40:22.682Z,5.93
2023-03-10T17:42:52.901Z,7.03
2023-03-10T17:45:23.009Z,6.70
2023-03-10T17:47:53.921Z,7.13
2023-03-10T17:50:25.754Z,6.00
2023-03-10T17:52:57.587Z,8.05
2023-03-10T17:55:27.759Z,6.22
2023-03-10T17:57:57.960Z,9.10
2023-03-10T18:00:28.230Z,10.75
2023-03-10T18:02:59.379Z,8.60
2023-03-10T18:05:29.684Z,7.45
2023-03-10T18:08:00.382Z,6.13
2023-03-10T18:10:30.788Z,7.80
2023-03-10T18:13:01.263Z,8.65
2023-03-10T18:15:31.947Z,7.78
2023-03-10T18:18:02.501Z,9.52
2023-03-10T18:20:33.185Z,14.15
2023-03-10T18:23:03.370Z,32.90
2023-03-10T18:25:33.641Z,20.83
2023-03-10T18:28:03.860Z,25.38
2023-03-10T18:30:34.114Z,28.33
2023-03-10T18:33:04.966Z,22.05
2023-03-10T18:35:39.570Z,33.75
2023-03-10T18:38:14.656Z,17.17
2023-03-10T18:40:50.937Z,12.90
2023-03-10T18:43:24.661Z,13.02
2023-03-10T18:45:58.721Z,9.98
2023-03-10T18:48:38.137Z,16.65
2023-03-10T18:51:12.564Z,17.75
2023-03-10T18:53:47.254Z,12.40
2023-03-10T18:56:24.236Z,15.55
2023-03-10T18:58:57.878Z,10.43
2023-03-10T19:01:34.504Z,13.45
2023-03-10T19:04:11.981Z,18.17
2023-03-10T19:06:42.729Z,11.35
2023-03-10T19:09:14.775Z,10.10
2023-03-10T19:11:45.404Z,8.10
2023-03-10T19:14:15.823Z,14.10
2023-03-10T19:16:47.479Z,26.05
2023-03-10T19:19:18.278Z,16.90
2023-03-10T19:21:48.700Z,15.20
2023-03-10T19:24:18.843Z,10.52
2023-03-10T19:26:50.164Z,10.45
2023-03-10T19:29:21.056Z,7.30
2023-03-10T19:31:51.461Z,9.52
2023-03-10T19:34:21.661Z,13.27
2023-03-10T19:36:52.237Z,11.55
2023-03-10T19:39:24.028Z,10.93
2023-03-10T19:41:55.912Z,10.05
2023-03-10T19:44:27.543Z,13.45
2023-03-10T19:46:57.759Z,12.57
2023-03-10T19:49:27.951Z,14.60
2023-03-10T19:51:58.122Z,14.18
2023-03-10T19:54:28.660Z,13.63
2023-03-10T19:56:58.722Z,12.52
2023-03-10T19:59:28.930Z,10.25
2023-03-10T20:02:02.878Z,18.13
2023-03-10T20:04:34.838Z,10.35
2023-03-10T20:07:05.522Z,11.07
2023-03-10T20:09:36.188Z,14.27
2023-03-10T20:12:06.522Z,12.93
2023-03-10T20:14:36.855Z,12.88
2023-03-10T20:17:07.053Z,11.80
2023-03-10T20:19:37.629Z,12.05
2023-03-10T20:22:11.079Z,9.43
2023-03-10T20:24:41.321Z,9.88
2023-03-10T20:27:12.478Z,7.78
2023-03-10T20:29:42.891Z,11.20
2023-03-10T20:32:13.443Z,8.13
2023-03-10T20:34:43.699Z,7.53
2023-03-10T20:37:14.051Z,18.73
2023-03-10T20:39:44.440Z,13.82
2023-03-10T20:42:14.655Z,14.10
2023-03-10T20:44:44.957Z,9.75
2023-03-10T20:47:16.437Z,17.02
2023-03-10T20:49:46.902Z,16.08
2023-03-10T20:52:17.151Z,17.88
2023-03-10T20:54:47.708Z,35.03
2023-03-10T20:57:17.831Z,20.20
2023-03-10T20:59:50.223Z,16.13
2023-03-10T21:02:20.345Z,22.65
2023-03-10T21:04:51.432Z,19.48
2023-03-10T21:07:23.097Z,17.08
2023-03-10T21:09:53.378Z,12.93
2023-03-10T21:12:23.562Z,10.73
2023-03-10T21:14:54.565Z,11.18
2023-03-10T21:17:25.370Z,13.10
2023-03-10T21:19:55.634Z,11.32
2023-03-10T21:22:25.842Z,7.63
2023-03-10T21:24:56.625Z,8.60
2023-03-10T21:27:28.522Z,8.52
2023-03-10T21:29:59.230Z,10.30
2023-03-10T21:32:29.578Z,10.90
2023-03-10T21:34:59.767Z,10.68
2023-03-10T21:37:30.151Z,11.27
2023-03-10T21:40:00.299Z,9.70
2023-03-10T21:42:30.507Z,10.07
2023-03-10T21:45:00.640Z,9.50
2023-03-10T21:47:31.378Z,17.10
2023-03-10T21:50:01.552Z,11.35
2023-03-10T21:52:31.759Z,10.00
2023-03-10T21:55:02.264Z,9.75
2023-03-10T21:57:32.422Z,14.13
2023-03-10T22:00:02.625Z,9.55
2023-03-10T22:02:35.740Z,9.68
2023-03-10T22:05:07.036Z,9.00
2023-03-10T22:07:38.612Z,7.18
2023-03-10T22:10:10.572Z,8.40
2023-03-10T22:12:40.812Z,8.07
2023-03-10T22:15:15.972Z,8.52
2023-03-10T22:17:46.498Z,8.10
2023-03-10T22:20:20.884Z,8.68
2023-03-10T22:22:51.548Z,8.20
2023-03-10T22:25:22.013Z,9.63
2023-03-10T22:27:56.698Z,16.13
2023-03-10T22:30:28.514Z,10.63
2023-03-10T22:33:01.486Z,10.25
2023-03-10T22:35:32.346Z,9.40
2023-03-10T22:38:03.503Z,10.25
2023-03-10T22:40:34.328Z,11.55
2023-03-10T22:43:04.551Z,9.45
2023-03-10T22:45:35.601Z,9.05
2023-03-10T22:48:06.703Z,10.68
2023-03-10T22:50:44.506Z,8.73
2023-03-10T22:53:17.895Z,8.75
2023-03-10T22:55:49.854Z,8.23
2023-03-10T22:58:20.074Z,8.00
2023-03-10T23:00:50.447Z,7.90
2023-03-10T23:03:20.764Z,9.73
2023-03-10T23:05:51.121Z,11.00
2023-03-10T23:08:21.371Z,9.48
2023-03-10T23:10:52.052Z,9.30
2023-03-10T23:13:22.159Z,9.02
2023-03-10T23:15:52.366Z,7.97
2023-03-10T23:18:22.448Z,7.10
2023-03-10T23:20:53.187Z,6.65
2023-03-10T23:23:23.734Z,7.68
2023-03-10T23:25:53.970Z,7.88
2023-03-10T23:28:24.422Z,10.07
2023-03-10T23:30:54.566Z,16.40
2023-03-10T23:33:24.734Z,18.98
2023-03-10T23:35:55.217Z,11.15
2023-03-10T23:38:26.762Z,9.13
2023-03-10T23:40:57.040Z,8.00
2023-03-10T23:43:27.828Z,9.93
2023-03-10T23:45:57.941Z,9.43
2023-03-10T23:48:28.216Z,10.38
2023-03-10T23:50:58.746Z,8.18
2023-03-10T23:53:29.137Z,11.20
2023-03-10T23:56:00.338Z,9.85
2023-03-10T23:58:30.561Z,8.55
